Time;durP1;ratioP1;P1;durP2;ratioP2;P2;SDS_P1;SDS_P2;PMS_P1;PMS_P2;Temp;Humidity;BMP_temperature;BMP_pressure;BME280_temperature;BME280_humidity;BME280_pressure;Samples;Min_cycle;Max_cycle;Signal;HPM_P1;HPM_P2
2022/04/08 00:01:25;;;;;;;6.43;0.75;;;5.80;99.90;;;;;;5087279;28;20044;-76
2022/04/08 00:03:52;;;;;;;3.65;0.60;;;5.80;99.90;;;;;;5086638;28;20048;-76
2022/04/08 00:06:18;;;;;;;1.42;0.43;;;5.80;99.90;;;;;;5087536;28;20085;-77
2022/04/08 00:08:46;;;;;;;5.63;0.73;;;5.70;99.90;;;;;;5087137;28;20204;-76
2022/04/08 00:11:12;;;;;;;6.60;0.40;;;5.70;99.90;;;;;;5065430;28;20407;-76
2022/04/08 00:13:38;;;;;;;5.03;1.08;;;5.70;99.90;;;;;;5066920;28;20048;-76
2022/04/08 00:16:05;;;;;;;2.38;0.32;;;5.80;99.90;;;;;;5066712;28;20155;-76
2022/04/08 00:18:31;;;;;;;6.20;0.63;;;5.70;99.90;;;;;;5065728;28;20080;-76
2022/04/08 00:20:57;;;;;;;7.18;0.80;;;5.70;99.90;;;;;;5066905;28;20126;-77
2022/04/08 00:23:23;;;;;;;5.40;0.60;;;5.60;99.90;;;;;;5066921;28;20146;-77
2022/04/08 00:25:48;;;;;;;2.10;0.25;;;5.60;99.90;;;;;;5065174;28;20048;-77
2022/04/08 00:28:14;;;;;;;1.17;0.20;;;5.40;99.90;;;;;;5066811;28;20056;-75
2022/04/08 00:30:40;;;;;;;2.55;0.28;;;5.20;99.90;;;;;;5067151;28;20084;-75
2022/04/08 00:33:06;;;;;;;0.38;0.20;;;5.10;99.90;;;;;;5066777;28;20037;-75
2022/04/08 00:35:31;;;;;;;2.55;0.20;;;5.00;99.90;;;;;;5066504;28;20043;-75
2022/04/08 00:37:57;;;;;;;2.85;0.35;;;5.70;99.90;;;;;;5066206;28;20055;-75
2022/04/08 00:40:23;;;;;;;0.43;0.20;;;4.80;99.90;;;;;;5067138;28;20128;-75
2022/04/08 00:42:49;;;;;;;1.38;0.28;;;4.80;99.90;;;;;;5066263;28;20064;-75
2022/04/08 00:45:14;;;;;;;2.83;0.25;;;4.80;99.90;;;;;;5065929;28;20041;-75
2022/04/08 00:47:41;;;;;;;1.67;0.50;;;4.80;99.90;;;;;;5065575;28;20084;-76
2022/04/08 00:50:19;;;;;;;5.15;0.43;;;4.80;99.90;;;;;;5065465;28;20040;-75
2022/04/08 00:52:46;;;;;;;6.00;0.45;;;6.10;99.90;;;;;;5069025;28;20036;-75
2022/04/08 00:55:12;;;;;;;5.43;0.52;;;4.80;99.90;;;;;;5069562;28;20053;-75
2022/04/08 00:57:39;;;;;;;8.07;0.70;;;4.80;99.90;;;;;;5070567;28;20063;-75
2022/04/08 01:00:09;;;;;;;5.20;0.73;;;4.80;99.90;;;;;;5051767;28;20052;-75
2022/04/08 01:02:36;;;;;;;11.35;1.10;;;4.80;99.90;;;;;;5070360;28;20040;-76
2022/04/08 01:05:03;;;;;;;16.80;1.40;;;4.80;99.90;;;;;;5068593;28;20063;-75
2022/04/08 01:07:30;;;;;;;17.15;1.40;;;4.80;99.90;;;;;;5068313;28;20149;-76
2022/04/08 01:09:56;;;;;;;7.22;0.90;;;4.70;99.90;;;;;;5070302;28;20249;-75
2022/04/08 01:12:21;;;;;;;9.10;1.00;;;4.70;99.90;;;;;;5089113;28;20414;-76
2022/04/08 01:14:47;;;;;;;16.83;1.05;;;4.70;99.90;;;;;;5090478;28;20084;-75
2022/04/08 01:17:14;;;;;;;6.97;1.02;;;4.60;99.90;;;;;;5090216;28;20390;-75
2022/04/08 01:19:39;;;;;;;2.97;0.70;;;4.70;99.90;;;;;;5090021;28;20383;-75
2022/04/08 01:22:05;;;;;;;16.65;1.88;;;4.60;99.90;;;;;;5089890;28;20390;-75
2022/04/08 01:24:36;;;;;;;12.00;1.20;;;4.60;99.90;;;;;;5089660;28;20044;-75
2022/04/08 01:27:02;;;;;;;15.23;1.25;;;4.60;99.90;;;;;;5072017;28;20043;-75
2022/04/08 01:29:28;;;;;;;6.28;0.90;;;4.50;99.90;;;;;;5089409;28;20135;-75
2022/04/08 01:31:54;;;;;;;6.10;1.30;;;4.50;99.90;;;;;;5089639;28;20123;-74
2022/04/08 01:34:20;;;;;;;7.50;0.73;;;4.50;99.90;;;;;;5089559;28;20037;-74
2022/04/08 01:36:45;;;;;;;11.43;0.93;;;5.40;99.90;;;;;;5071108;28;20086;-75
2022/04/08 01:39:11;;;;;;;17.77;1.88;;;4.50;99.90;;;;;;5054925;28;20061;-75
2022/04/08 01:41:37;;;;;;;13.40;1.23;;;4.70;99.90;;;;;;5089018;28;20398;-75
2022/04/08 01:44:03;;;;;;;8.15;0.75;;;5.50;99.90;;;;;;5070891;28;20044;-75
2022/04/08 01:46:28;;;;;;;13.45;1.13;;;4.50;99.90;;;;;;5070522;28;20048;-75
2022/04/08 01:48:54;;;;;;;10.82;1.15;;;4.60;99.90;;;;;;5071291;28;20101;-75
2022/04/08 01:51:21;;;;;;;19.98;1.50;;;4.60;99.90;;;;;;5053997;28;20087;-75
2022/04/08 01:53:47;;;;;;;11.10;1.00;;;4.60;99.90;;;;;;5089582;28;20079;-74
2022/04/08 01:56:13;;;;;;;10.40;0.80;;;4.50;99.90;;;;;;5089361;28;20490;-75
2022/04/08 01:58:40;;;;;;;7.55;1.08;;;4.60;99.90;;;;;;5088629;28;20074;-75
2022/04/08 02:01:06;;;;;;;9.35;0.98;;;4.60;99.90;;;;;;5089162;28;20033;-74
2022/04/08 02:03:33;;;;;;;6.05;0.75;;;4.60;99.90;;;;;;5053930;28;20050;-74
2022/04/08 02:05:59;;;;;;;5.97;1.30;;;4.50;99.90;;;;;;5070760;28;20483;-74
2022/04/08 02:08:25;;;;;;;9.45;1.83;;;4.50;99.90;;;;;;5070631;28;20533;-75
2022/04/08 02:10:53;;;;;;;4.70;0.57;;;4.50;99.90;;;;;;5070385;28;20056;-75
2022/04/08 02:13:22;;;;;;;6.25;0.90;;;4.50;99.90;;;;;;5070716;28;20048;-75
2022/04/08 02:15:48;;;;;;;7.05;1.42;;;4.50;99.90;;;;;;5053951;28;20044;-74
2022/04/08 02:18:14;;;;;;;7.22;1.10;;;4.50;99.90;;;;;;5054241;28;20043;-74
2022/04/08 02:20:41;;;;;;;6.18;0.70;;;4.50;99.90;;;;;;5037129;28;20052;-74
2022/04/08 02:23:07;;;;;;;7.97;0.98;;;4.50;99.90;;;;;;5054453;28;20036;-75
2022/04/08 02:25:33;;;;;;;16.67;1.42;;;4.50;99.90;;;;;;5053714;28;20390;-75
2022/04/08 02:28:01;;;;;;;9.68;1.08;;;4.60;99.90;;;;;;5070787;28;20048;-75
2022/04/08 02:30:26;;;;;;;22.13;2.22;;;5.30;99.90;;;;;;5070273;28;20509;-75
2022/04/08 02:32:52;;;;;;;11.00;1.13;;;4.60;99.90;;;;;;5053810;28;20043;-75
2022/04/08 02:35:19;;;;;;;13.82;1.58;;;4.70;99.90;;;;;;5088612;28;20040;-74
2022/04/08 02:37:44;;;;;;;8.85;1.02;;;4.70;99.90;;;;;;5069672;28;20621;-74
2022/04/08 02:40:11;;;;;;;5.70;0.85;;;4.80;99.90;;;;;;5053921;28;20138;-74
2022/04/08 02:42:36;;;;;;;11.88;1.40;;;4.70;99.90;;;;;;5069618;28;20054;-74
2022/04/08 02:45:02;;;;;;;12.38;2.10;;;4.70;99.90;;;;;;5088127;28;20040;-75
2022/04/08 02:47:28;;;;;;;10.45;1.02;;;4.70;99.90;;;;;;5070193;28;20076;-74
2022/04/08 02:49:54;;;;;;;10.57;1.02;;;4.60;99.90;;;;;;5088086;28;20111;-75
2022/04/08 02:52:19;;;;;;;8.50;1.02;;;4.60;99.90;;;;;;5088151;28;20028;-75
2022/04/08 02:54:45;;;;;;;11.27;0.90;;;4.50;99.90;;;;;;5087882;28;20429;-75
2022/04/08 02:57:11;;;;;;;7.78;0.90;;;4.50;99.90;;;;;;5088153;28;20473;-76
2022/04/08 02:59:37;;;;;;;8.20;0.88;;;4.40;99.90;;;;;;5087638;28;20131;-75
2022/04/08 03:02:03;;;;;;;7.47;0.60;;;4.30;99.90;;;;;;5087727;28;20131;-75
2022/04/08 03:04:29;;;;;;;7.47;0.90;;;4.30;99.90;;;;;;5069413;28;20050;-75
2022/04/08 03:06:55;;;;;;;10.55;1.40;;;4.20;99.90;;;;;;5087807;28;20123;-75
2022/04/08 03:09:21;;;;;;;11.77;0.85;;;4.20;99.90;;;;;;5087947;28;20056;-74
2022/04/08 03:11:47;;;;;;;7.80;0.82;;;4.20;99.90;;;;;;5086995;28;20051;-74
2022/04/08 03:14:13;;;;;;;7.32;0.75;;;4.10;99.90;;;;;;5087378;28;20060;-75
2022/04/08 03:16:39;;;;;;;5.63;0.85;;;4.10;99.90;;;;;;5068926;28;20513;-74
2022/04/08 03:19:05;;;;;;;7.75;1.02;;;4.10;99.90;;;;;;5087687;28;20529;-75
2022/04/08 03:21:33;;;;;;;4.40;0.95;;;4.00;99.90;;;;;;5087479;28;20083;-75
2022/04/08 03:23:59;;;;;;;5.57;0.93;;;4.00;99.90;;;;;;5068988;28;20127;-74
2022/04/08 03:26:25;;;;;;;6.95;0.68;;;4.00;99.90;;;;;;5087480;28;20079;-74
2022/04/08 03:28:51;;;;;;;3.90;1.38;;;4.00;99.90;;;;;;5087323;28;20068;-74
2022/04/08 03:31:16;;;;;;;3.90;0.52;;;4.00;99.90;;;;;;5087870;28;20432;-75
2022/04/08 03:33:42;;;;;;;5.00;0.80;;;4.00;99.90;;;;;;5087308;28;20036;-75
2022/04/08 03:36:08;;;;;;;7.65;0.75;;;4.00;99.90;;;;;;5087709;28;20098;-75
2022/04/08 03:38:34;;;;;;;8.35;0.77;;;4.00;99.90;;;;;;5087268;28;20494;-75
2022/04/08 03:41:00;;;;;;;12.52;0.85;;;4.00;99.90;;;;;;5087259;28;20398;-75
2022/04/08 03:43:28;;;;;;;1.10;0.40;;;4.10;99.90;;;;;;5069011;28;20497;-75
2022/04/08 03:45:53;;;;;;;4.93;0.50;;;4.10;99.90;;;;;;5068636;28;20204;-75
2022/04/08 03:48:19;;;;;;;4.22;0.60;;;4.10;99.90;;;;;;5087734;28;20047;-75
2022/04/08 03:50:45;;;;;;;7.93;0.80;;;4.10;99.90;;;;;;5068953;28;20067;-75
2022/04/08 03:53:12;;;;;;;9.30;0.93;;;4.10;99.90;;;;;;5087570;28;20552;-75
2022/04/08 03:55:39;;;;;;;8.52;0.77;;;4.20;99.90;;;;;;5087243;28;20839;-75
2022/04/08 03:58:05;;;;;;;4.90;0.70;;;4.20;99.90;;;;;;5087115;28;20046;-75
2022/04/08 04:00:30;;;;;;;3.17;0.80;;;4.60;99.90;;;;;;5087111;28;20036;-75
2022/04/08 04:02:56;;;;;;;9.63;1.58;;;4.30;99.90;;;;;;5086911;28;20474;-75
2022/04/08 04:05:22;;;;;;;11.60;0.90;;;4.30;99.90;;;;;;5087519;28;20040;-74
2022/04/08 04:07:48;;;;;;;3.50;0.43;;;4.40;99.90;;;;;;5086510;28;20040;-75
2022/04/08 04:10:14;;;;;;;2.55;0.30;;;4.50;99.90;;;;;;5087149;28;20040;-75
2022/04/08 04:12:44;;;;;;;1.83;0.30;;;4.30;99.90;;;;;;5069428;28;20376;-75
2022/04/08 04:15:10;;;;;;;1.60;0.40;;;4.10;99.90;;;;;;5052838;28;20047;-75
2022/04/08 04:17:36;;;;;;;6.00;0.60;;;4.00;99.90;;;;;;5086776;28;20043;-74
2022/04/08 04:20:04;;;;;;;1.20;0.47;;;3.90;99.90;;;;;;5086774;28;20048;-74
2022/04/08 04:22:29;;;;;;;4.55;0.75;;;3.80;99.90;;;;;;5087537;28;20044;-74
2022/04/08 04:24:55;;;;;;;9.65;0.68;;;3.70;99.90;;;;;;5086625;28;20519;-75
2022/04/08 04:27:21;;;;;;;10.82;0.65;;;3.70;99.90;;;;;;5072622;28;20080;-75
2022/04/08 04:29:46;;;;;;;4.43;0.82;;;3.60;99.90;;;;;;5090377;28;20055;-75
2022/04/08 04:32:12;;;;;;;1.38;0.47;;;3.60;99.90;;;;;;5072492;28;20122;-75
2022/04/08 04:34:38;;;;;;;2.30;0.40;;;3.60;99.90;;;;;;5090500;28;20040;-75
2022/04/08 04:37:05;;;;;;;4.72;0.70;;;3.60;99.90;;;;;;5090305;28;20044;-75
2022/04/08 04:39:31;;;;;;;5.85;0.70;;;3.60;99.90;;;;;;5090758;28;20486;-75
2022/04/08 04:41:57;;;;;;;7.43;0.63;;;3.50;99.90;;;;;;5089952;28;20048;-75
2022/04/08 04:44:24;;;;;;;3.80;0.70;;;3.50;99.90;;;;;;5072985;28;20043;-74
2022/04/08 04:46:50;;;;;;;4.68;0.50;;;3.50;99.90;;;;;;5090261;28;20044;-75
2022/04/08 04:49:16;;;;;;;3.38;0.47;;;3.50;99.90;;;;;;5090300;28;20051;-74
2022/04/08 04:51:41;;;;;;;5.50;0.50;;;3.50;99.90;;;;;;5090131;28;20142;-75
2022/04/08 04:54:07;;;;;;;5.80;0.70;;;3.60;99.90;;;;;;5071722;28;20078;-75
2022/04/08 04:56:33;;;;;;;6.88;0.88;;;3.60;99.90;;;;;;5055569;28;20051;-75
2022/04/08 04:58:59;;;;;;;1.33;0.40;;;3.60;99.90;;;;;;5089844;28;20097;-75
2022/04/08 05:01:24;;;;;;;1.50;0.45;;;3.60;99.90;;;;;;5090774;28;20047;-75
2022/04/08 05:03:50;;;;;;;6.07;0.70;;;3.60;99.90;;;;;;5089788;28;20051;-75
2022/04/08 05:06:16;;;;;;;2.65;0.77;;;3.70;99.90;;;;;;5089799;28;20122;-75
2022/04/08 05:08:41;;;;;;;2.65;0.65;;;3.70;99.90;;;;;;5089824;28;20121;-75
2022/04/08 05:11:07;;;;;;;6.50;0.80;;;3.70;99.90;;;;;;5070813;28;20067;-75
2022/04/08 05:13:33;;;;;;;7.97;0.73;;;3.70;99.90;;;;;;5090033;28;20060;-74
2022/04/08 05:15:58;;;;;;;4.85;0.65;;;3.70;99.90;;;;;;5089498;28;20036;-74
2022/04/08 05:18:24;;;;;;;3.53;0.57;;;3.80;99.90;;;;;;5090502;28;20051;-74
2022/04/08 05:20:52;;;;;;;2.75;0.60;;;3.80;99.90;;;;;;5071201;28;20047;-75
2022/04/08 05:23:19;;;;;;;3.78;0.50;;;3.70;99.90;;;;;;5055148;28;20343;-74
2022/04/08 05:25:44;;;;;;;10.65;1.15;;;3.70;99.90;;;;;;5089929;28;20123;-74
2022/04/08 05:28:15;;;;;;;2.42;1.00;;;3.70;99.90;;;;;;5071238;28;20127;-74
2022/04/08 05:30:42;;;;;;;2.50;0.50;;;3.60;99.90;;;;;;5071528;28;20048;-74
2022/04/08 05:33:08;;;;;;;5.30;0.60;;;3.60;99.90;;;;;;5054000;28;20044;-74
2022/04/08 05:35:33;;;;;;;1.77;0.55;;;3.60;99.90;;;;;;5071877;28;20242;-74
2022/04/08 05:37:59;;;;;;;3.65;0.50;;;3.60;99.90;;;;;;5070096;28;20463;-74
2022/04/08 05:40:25;;;;;;;4.32;0.40;;;3.70;99.90;;;;;;5038363;28;20494;-75
2022/04/08 05:42:51;;;;;;;7.40;0.73;;;3.70;99.90;;;;;;5054532;28;20044;-75
2022/04/08 05:45:20;;;;;;;5.05;0.70;;;4.40;99.90;;;;;;5071194;28;20047;-75
2022/04/08 05:47:50;;;;;;;4.00;0.80;;;3.90;99.90;;;;;;5071068;28;20043;-74
2022/04/08 05:50:18;;;;;;;4.85;0.52;;;4.00;99.90;;;;;;5071133;28;20059;-75
2022/04/08 05:52:45;;;;;;;3.40;0.45;;;5.40;99.90;;;;;;5071074;28;20047;-75
2022/04/08 05:55:11;;;;;;;3.53;0.70;;;4.70;99.90;;;;;;5054083;28;20052;-74
2022/04/08 05:57:40;;;;;;;4.78;0.52;;;4.10;99.90;;;;;;5070643;28;20095;-74
2022/04/08 06:00:09;;;;;;;4.38;0.57;;;4.20;99.90;;;;;;5071147;28;20097;-74
2022/04/08 06:02:34;;;;;;;3.10;0.68;;;4.20;99.90;;;;;;5070297;28;20052;-74
2022/04/08 06:05:00;;;;;;;2.97;1.10;;;4.20;99.90;;;;;;5089261;28;20044;-74
2022/04/08 06:07:26;;;;;;;2.15;0.75;;;4.20;99.90;;;;;;5088337;28;20040;-75
2022/04/08 06:09:52;;;;;;;2.95;0.63;;;4.20;99.90;;;;;;5071312;28;20044;-74
2022/04/08 06:12:18;;;;;;;0.85;0.50;;;4.20;99.90;;;;;;5087907;28;20434;-75
2022/04/08 06:14:44;;;;;;;3.00;1.00;;;4.20;99.90;;;;;;5088303;28;20461;-75
2022/04/08 06:17:10;;;;;;;2.40;0.82;;;4.30;99.90;;;;;;5088393;28;20040;-75
2022/04/08 06:19:35;;;;;;;5.65;0.98;;;4.40;99.90;;;;;;5069721;28;20400;-75
2022/04/08 06:22:01;;;;;;;4.57;1.50;;;4.50;99.90;;;;;;5070337;28;20036;-76
2022/04/08 06:24:26;;;;;;;9.55;0.75;;;4.50;99.90;;;;;;5069512;28;20080;-74
2022/04/08 06:26:52;;;;;;;3.92;0.65;;;4.60;99.90;;;;;;5070044;28;20051;-74
2022/04/08 06:29:18;;;;;;;4.25;1.23;;;4.60;99.90;;;;;;5088069;28;20044;-77
2022/04/08 06:31:44;;;;;;;4.65;0.90;;;4.90;99.90;;;;;;5053476;28;20181;-77
2022/04/08 06:34:09;;;;;;;2.92;0.85;;;4.70;99.90;;;;;;5053253;28;20157;-74
2022/04/08 06:36:35;;;;;;;5.30;0.82;;;5.10;99.90;;;;;;5036249;28;20040;-75
2022/04/08 06:39:01;;;;;;;1.08;0.50;;;4.70;99.90;;;;;;5088565;28;20079;-75
2022/04/08 06:41:26;;;;;;;4.05;0.70;;;4.80;99.90;;;;;;5069602;28;20052;-75
2022/04/08 06:43:52;;;;;;;3.80;0.93;;;4.90;99.90;;;;;;5070393;28;20040;-75
2022/04/08 06:46:19;;;;;;;8.88;1.05;;;5.00;99.90;;;;;;5069515;28;20388;-75
2022/04/08 06:48:45;;;;;;;7.47;1.13;;;5.10;99.90;;;;;;5052325;28;20103;-75
2022/04/08 06:51:10;;;;;;;6.13;1.10;;;5.20;99.90;;;;;;5036290;28;20056;-75
2022/04/08 06:53:36;;;;;;;7.13;0.95;;;5.70;99.90;;;;;;5069402;28;20076;-75
2022/04/08 06:56:03;;;;;;;5.45;1.20;;;5.30;99.90;;;;;;5069664;28;20079;-75
2022/04/08 06:58:30;;;;;;;9.57;1.08;;;5.40;99.90;;;;;;5035922;28;20036;-76
2022/04/08 07:00:56;;;;;;;9.40;1.08;;;5.50;99.90;;;;;;5053504;28;20360;-75
2022/04/08 07:03:22;;;;;;;4.00;0.80;;;5.50;99.90;;;;;;5068765;28;20505;-75
2022/04/08 07:05:49;;;;;;;7.93;1.13;;;5.60;99.90;;;;;;5053276;28;20044;-75
2022/04/08 07:08:15;;;;;;;12.20;1.10;;;5.70;99.90;;;;;;5052085;28;20050;-75
2022/04/08 07:10:41;;;;;;;3.80;0.82;;;5.70;99.90;;;;;;5051965;28;20460;-74
2022/04/08 07:13:08;;;;;;;3.85;0.93;;;5.80;99.90;;;;;;5069221;28;20052;-75
2022/04/08 07:15:34;;;;;;;4.82;0.95;;;6.00;99.90;;;;;;5068921;28;20277;-74
2022/04/08 07:18:00;;;;;;;5.30;0.90;;;6.00;99.90;;;;;;5053283;28;20102;-74
2022/04/08 07:20:26;;;;;;;5.88;0.85;;;6.10;99.90;;;;;;5052232;28;20186;-75
2022/04/08 07:22:52;;;;;;;6.93;1.00;;;6.20;99.90;;;;;;5069607;28;20043;-74
2022/04/08 07:25:18;;;;;;;4.60;0.68;;;6.30;99.90;;;;;;5068957;28;20036;-75
2022/04/08 07:27:48;;;;;;;4.85;0.75;;;6.40;99.90;;;;;;5052364;28;20095;-75
2022/04/08 07:30:17;;;;;;;4.80;0.98;;;6.70;99.90;;;;;;5052448;28;20541;-75
2022/04/08 07:32:43;;;;;;;6.55;1.17;;;7.50;99.90;;;;;;5051964;28;20040;-75
2022/04/08 07:35:10;;;;;;;6.28;0.95;;;6.70;99.90;;;;;;5069605;28;20044;-75
2022/04/08 07:37:36;;;;;;;10.50;1.40;;;6.80;99.90;;;;;;5068898;28;20111;-75
2022/04/08 07:40:07;;;;;;;4.72;0.65;;;6.90;99.90;;;;;;5069005;28;20082;-75
2022/04/08 07:42:33;;;;;;;6.95;0.77;;;7.10;99.90;;;;;;5068937;28;20044;-76
2022/04/08 07:44:58;;;;;;;7.22;0.95;;;7.20;99.90;;;;;;5051794;28;20380;-75
2022/04/08 07:47:28;;;;;;;9.55;1.00;;;7.40;99.90;;;;;;5068822;28;20055;-75
2022/04/08 07:50:02;;;;;;;3.25;1.27;;;7.50;99.90;;;;;;5068225;28;20542;-75
2022/04/08 07:52:28;;;;;;;4.45;0.60;;;7.50;99.90;;;;;;5068849;28;20052;-75
2022/04/08 07:54:55;;;;;;;5.85;0.68;;;7.40;99.90;;;;;;5068553;28;20212;-75
2022/04/08 07:57:22;;;;;;;4.03;0.40;;;7.50;99.90;;;;;;5051651;28;20105;-75
2022/04/08 07:59:48;;;;;;;2.58;0.60;;;7.50;99.90;;;;;;5053308;28;20095;-75
2022/04/08 08:02:14;;;;;;;2.50;0.60;;;7.50;99.90;;;;;;5039121;28;20079;-75
2022/04/08 08:04:40;;;;;;;2.60;0.50;;;7.50;99.90;;;;;;5073372;28;20105;-75
2022/04/08 08:07:06;;;;;;;2.70;0.60;;;7.60;99.90;;;;;;5072633;28;20044;-75
2022/04/08 08:09:34;;;;;;;3.25;0.63;;;7.60;99.90;;;;;;5091711;28;20036;-75
2022/04/08 08:12:00;;;;;;;2.55;0.70;;;7.70;99.90;;;;;;5071746;28;20060;-75
2022/04/08 08:14:26;;;;;;;5.72;1.00;;;8.20;99.90;;;;;;5072985;28;20073;-75
2022/04/08 08:16:52;;;;;;;4.25;0.50;;;7.90;99.90;;;;;;5091018;28;20115;-76
2022/04/08 08:19:17;;;;;;;9.95;1.10;;;8.00;99.90;;;;;;5039393;28;20497;-74
2022/04/08 08:21:43;;;;;;;11.60;0.93;;;8.10;99.90;;;;;;5072989;28;20096;-75
2022/04/08 08:24:09;;;;;;;6.63;0.80;;;8.30;99.90;;;;;;5072261;28;20498;-75
2022/04/08 08:26:35;;;;;;;6.78;1.10;;;8.40;99.90;;;;;;5056205;28;20052;-75
2022/04/08 08:29:01;;;;;;;5.20;0.95;;;8.60;99.90;;;;;;5071731;28;20051;-75
2022/04/08 08:31:26;;;;;;;2.83;0.47;;;8.80;99.90;;;;;;5055545;28;20044;-74
2022/04/08 08:33:52;;;;;;;7.03;1.15;;;9.00;99.90;;;;;;5055525;28;20071;-76
2022/04/08 08:36:18;;;;;;;5.82;0.82;;;9.30;99.90;;;;;;5071813;28;20048;-76
2022/04/08 08:38:44;;;;;;;4.35;0.75;;;9.30;99.90;;;;;;5056107;28;20048;-76
2022/04/08 08:41:10;;;;;;;5.57;0.60;;;9.20;99.90;;;;;;5072086;28;20055;-76
2022/04/08 08:43:37;;;;;;;4.70;0.47;;;9.10;99.90;;;;;;5072747;28;20036;-76
2022/04/08 08:46:04;;;;;;;9.40;0.88;;;8.90;99.90;;;;;;5089929;28;20048;-76
2022/04/08 08:48:33;;;;;;;3.67;0.75;;;9.00;99.90;;;;;;5071888;28;20067;-76
2022/04/08 08:51:05;;;;;;;5.53;0.82;;;9.10;99.90;;;;;;5055057;28;20054;-76
2022/04/08 08:53:32;;;;;;;3.25;0.73;;;9.10;99.90;;;;;;5055067;28;20059;-76
2022/04/08 08:55:58;;;;;;;3.95;0.55;;;7.60;99.90;;;;;;5072467;28;20048;-75
2022/04/08 08:58:24;;;;;;;5.43;0.70;;;8.90;99.90;;;;;;5071083;28;20528;-75
2022/04/08 09:00:50;;;;;;;5.25;0.50;;;9.10;99.90;;;;;;5071959;28;20040;-75
2022/04/08 09:03:16;;;;;;;5.55;0.70;;;9.30;99.90;;;;;;5071007;28;20048;-75
2022/04/08 09:05:47;;;;;;;5.93;0.47;;;9.50;99.90;;;;;;5072051;28;20036;-76
2022/04/08 09:08:13;;;;;;;12.23;1.70;;;9.60;99.90;;;;;;5090008;28;20047;-75
2022/04/08 09:10:46;;;;;;;3.28;0.60;;;9.60;99.90;;;;;;5088689;28;20040;-76
2022/04/08 09:13:16;;;;;;;3.65;0.30;;;9.30;99.90;;;;;;5055675;28;20090;-76
2022/04/08 09:15:56;;;;;;;3.65;0.57;;;8.90;99.90;;;;;;5054680;28;20495;-76
2022/04/08 09:18:22;;;;;;;6.85;0.82;;;8.60;99.90;;;;;;5090115;28;20044;-77
2022/04/08 09:20:49;;;;;;;3.78;0.65;;;8.40;99.90;;;;;;5071104;28;20047;-75
2022/04/08 09:23:18;;;;;;;4.32;1.08;;;8.40;99.90;;;;;;5071411;28;20062;-75
2022/04/08 09:25:47;;;;;;;2.05;0.52;;;8.60;99.90;;;;;;5071875;28;20104;-75
2022/04/08 09:28:15;;;;;;;5.55;0.88;;;8.80;99.90;;;;;;5070761;28;20123;-76
2022/04/08 09:30:55;;;;;;;5.10;0.50;;;9.00;99.90;;;;;;5071592;28;20044;-76
2022/04/08 09:33:23;;;;;;;5.88;0.57;;;9.00;99.90;;;;;;5088933;28;20036;-76
2022/04/08 09:35:50;;;;;;;6.22;0.50;;;9.00;99.90;;;;;;5071504;28;20040;-76
2022/04/08 09:38:22;;;;;;;5.50;0.80;;;9.00;99.90;;;;;;5071798;28;20036;-76
2022/04/08 09:40:48;;;;;;;8.03;0.47;;;8.90;99.90;;;;;;5054034;28;20081;-76
2022/04/08 09:43:16;;;;;;;3.75;0.50;;;8.70;99.90;;;;;;5089978;28;20055;-76
2022/04/08 09:45:44;;;;;;;7.90;0.70;;;8.90;99.90;;;;;;5070241;28;20125;-76
2022/04/08 09:48:10;;;;;;;2.95;0.50;;;9.20;99.90;;;;;;5071122;28;20491;-76
2022/04/08 09:50:39;;;;;;;1.67;0.22;;;9.60;99.90;;;;;;5053894;28;20059;-76
2022/04/08 09:53:05;;;;;;;5.97;0.40;;;9.80;99.90;;;;;;5071165;28;20398;-77
2022/04/08 09:55:32;;;;;;;3.13;0.50;;;9.90;99.90;;;;;;5071251;28;20040;-76
2022/04/08 09:58:02;;;;;;;3.78;1.20;;;10.10;99.90;;;;;;5088454;28;20055;-76
2022/04/08 10:00:29;;;;;;;2.13;0.30;;;10.40;99.90;;;;;;5089708;28;20050;-76
2022/04/08 10:02:55;;;;;;;3.97;0.57;;;10.70;99.90;;;;;;5070500;28;20490;-76
2022/04/08 10:05:22;;;;;;;2.13;0.52;;;10.80;99.90;;;;;;5071821;28;20040;-77
2022/04/08 10:07:52;;;;;;;3.88;0.90;;;11.00;99.90;;;;;;5054876;28;20089;-77
2022/04/08 10:10:27;;;;;;;5.45;0.90;;;10.90;99.90;;;;;;5054775;28;20040;-77
2022/04/08 10:13:15;;;;;;;6.40;0.55;;;10.90;99.90;;;;;;5089269;28;20044;-77
2022/04/08 10:16:02;;;;;;;2.67;0.35;;;10.50;99.90;;;;;;5088090;28;20541;-74
2022/04/08 10:18:39;;;;;;;2.90;0.30;;;10.20;99.90;;;;;;5054195;28;20056;-76
2022/04/08 10:21:05;;;;;;;5.82;0.40;;;10.00;99.90;;;;;;5088971;28;20181;-76
2022/04/08 10:23:49;;;;;;;0.43;0.13;;;9.70;99.90;;;;;;5069094;28;20118;-76
2022/04/08 10:26:22;;;;;;;3.60;0.25;;;9.50;99.90;;;;;;5071013;28;20082;-77
2022/04/08 10:28:52;;;;;;;4.90;0.65;;;9.90;99.90;;;;;;5052664;28;20051;-77
2022/04/08 10:31:24;;;;;;;1.75;0.32;;;10.50;99.90;;;;;;5070085;28;20044;-77
2022/04/08 10:33:53;;;;;;;5.55;0.50;;;9.80;99.90;;;;;;5070587;28;20399;-77
2022/04/08 10:36:29;;;;;;;3.38;0.45;;;10.00;99.90;;;;;;5053455;28;20089;-77
2022/04/08 10:39:15;;;;;;;9.57;0.80;;;10.20;99.90;;;;;;5070394;28;20047;-78
2022/04/08 10:42:03;;;;;;;5.35;0.50;;;10.30;99.90;;;;;;5069598;28;20048;-78
2022/04/08 10:44:39;;;;;;;2.45;0.30;;;10.40;99.90;;;;;;5069653;28;20044;-77
2022/04/08 10:47:15;;;;;;;3.20;0.45;;;10.10;99.90;;;;;;5070344;28;20055;-78
2022/04/08 10:50:02;;;;;;;1.95;0.40;;;9.60;99.90;;;;;;5069268;28;20134;-79
2022/04/08 10:52:31;;;;;;;2.47;0.57;;;9.00;99.90;;;;;;5069998;28;20105;-79
2022/04/08 10:55:23;;;;;;;4.18;0.43;;;8.30;99.90;;;;;;5069448;28;20115;-78
2022/04/08 10:57:56;;;;;;;2.15;0.47;;;8.10;99.90;;;;;;5084651;28;20127;-78
2022/04/08 11:00:22;;;;;;;1.85;0.45;;;7.90;99.90;;;;;;5069981;28;20154;-78
2022/04/08 11:02:52;;;;;;;4.40;0.45;;;7.90;99.90;;;;;;5068924;28;20178;-79
2022/04/08 11:05:18;;;;;;;2.75;0.60;;;8.10;99.90;;;;;;5037592;28;20076;-78
2022/04/08 11:07:46;;;;;;;3.88;1.05;;;8.40;99.90;;;;;;5069462;28;20526;-79
2022/04/08 11:10:13;;;;;;;3.30;0.50;;;8.70;99.90;;;;;;5069081;28;20075;-79
2022/04/08 11:12:47;;;;;;;6.47;0.55;;;9.10;99.90;;;;;;5069323;28;20116;-79
2022/04/08 11:15:18;;;;;;;2.60;0.68;;;9.40;99.90;;;;;;5068888;28;20098;-78
2022/04/08 11:17:46;;;;;;;2.60;0.40;;;9.70;99.90;;;;;;5069996;28;20083;-79
2022/04/08 11:20:17;;;;;;;2.55;0.40;;;10.20;99.90;;;;;;5087232;28;20564;-79
2022/04/08 11:22:49;;;;;;;5.10;0.43;;;10.60;99.90;;;;;;5087506;28;20059;-79
2022/04/08 11:25:28;;;;;;;4.38;0.50;;;10.80;99.90;;;;;;5069529;28;20054;-79
2022/04/08 11:27:57;;;;;;;4.18;0.60;;;10.90;99.90;;;;;;5087011;28;20044;-80
2022/04/08 11:30:24;;;;;;;3.60;0.50;;;10.70;99.90;;;;;;5088260;28;20040;-80
2022/04/08 11:32:50;;;;;;;4.07;0.73;;;10.30;99.90;;;;;;5087024;28;20320;-79
2022/04/08 11:35:16;;;;;;;3.33;0.47;;;10.60;99.90;;;;;;5052658;28;20044;-80
2022/04/08 11:37:42;;;;;;;4.18;0.60;;;10.10;99.90;;;;;;5087368;28;20043;-79
2022/04/08 11:40:08;;;;;;;3.90;0.50;;;10.20;99.90;;;;;;5068799;28;20055;-79
2022/04/08 11:42:34;;;;;;;4.93;0.52;;;10.20;99.90;;;;;;5087817;28;20051;-79
2022/04/08 11:45:01;;;;;;;5.05;0.50;;;10.30;99.90;;;;;;5086823;28;20090;-79
2022/04/08 11:47:33;;;;;;;5.80;0.30;;;11.10;99.90;;;;;;5087834;28;20044;-79
2022/04/08 11:50:07;;;;;;;2.50;0.40;;;10.50;99.90;;;;;;5086379;28;20536;-80
2022/04/08 11:52:34;;;;;;;4.90;0.50;;;10.70;99.90;;;;;;5087338;28;20085;-79
2022/04/08 11:55:06;;;;;;;1.35;0.35;;;11.00;99.90;;;;;;5069077;28;20055;-78
2022/04/08 11:57:33;;;;;;;4.75;0.65;;;11.30;99.90;;;;;;5069022;28;20473;-78
2022/04/08 12:00:03;;;;;;;5.13;0.52;;;11.60;99.90;;;;;;5087808;28;20032;-79
2022/04/08 12:02:31;;;;;;;1.35;0.30;;;11.80;99.90;;;;;;5086912;28;20424;-80
2022/04/08 12:04:57;;;;;;;4.03;0.40;;;11.90;99.90;;;;;;5088098;28;20040;-79
2022/04/08 12:07:30;;;;;;;2.20;0.50;;;11.90;99.90;;;;;;5069218;28;20044;-78
2022/04/08 12:09:57;;;;;;;;;;;11.90;99.30;;;;;;5088152;28;20119;-78
2022/04/08 12:12:28;;;;;;;2.17;0.52;;;12.00;82.10;;;;;;5069289;28;19920;-80
2022/04/08 12:14:54;;;;;;;3.47;0.73;;;12.10;99.40;;;;;;5068095;28;20052;-79
2022/04/08 12:17:21;;;;;;;4.90;0.50;;;12.20;99.90;;;;;;5069804;28;20051;-77
2022/04/08 12:19:53;;;;;;;2.88;0.55;;;12.30;99.90;;;;;;5068146;28;20032;-78
2022/04/08 12:22:19;;;;;;;4.10;0.57;;;12.40;98.10;;;;;;5068813;28;20044;-77
2022/04/08 12:24:47;;;;;;;10.20;1.05;;;12.40;99.90;;;;;;5086993;28;20786;-77
2022/04/08 12:27:23;;;;;;;5.93;0.63;;;11.60;97.60;;;;;;5086404;28;20076;-78
2022/04/08 12:30:09;;;;;;;4.78;0.35;;;12.00;96.90;;;;;;5069257;28;20051;-78
2022/04/08 12:32:37;;;;;;;4.10;0.40;;;11.60;90.90;;;;;;5086086;28;20471;-78
2022/04/08 12:35:06;;;;;;;5.07;0.45;;;11.30;96.70;;;;;;5087407;28;20037;-77
2022/04/08 12:37:33;;;;;;;4.50;0.70;;;11.00;97.30;;;;;;5086777;28;20044;-79
2022/04/08 12:39:59;;;;;;;4.78;0.63;;;10.80;98.30;;;;;;5068594;28;20051;-79
2022/04/08 12:42:24;;;;;;;5.15;0.70;;;10.60;98.70;;;;;;5087496;28;20032;-79
2022/04/08 12:44:50;;;;;;;5.13;0.50;;;10.50;99.90;;;;;;5086129;28;20085;-79
2022/04/08 12:47:16;;;;;;;5.53;0.50;;;10.20;99.90;;;;;;5089498;28;20123;-79
2022/04/08 12:49:42;;;;;;;2.08;0.60;;;9.90;99.90;;;;;;5090351;28;20040;-78
2022/04/08 12:52:07;;;;;;;2.85;0.43;;;9.70;99.90;;;;;;5039730;28;20048;-78
2022/04/08 12:54:33;;;;;;;2.70;0.40;;;9.50;99.90;;;;;;5090484;28;20613;-78
2022/04/08 12:56:59;;;;;;;8.10;0.60;;;9.30;99.90;;;;;;5090780;28;20063;-78